createdAt,value
2022-10-07T00:02:31.294Z,99159.47
2022-10-07T00:07:33.957Z,99156.75
2022-10-07T00:12:36.649Z,99151.00
2022-10-07T00:17:39.110Z,99164.63
2022-10-07T00:22:41.430Z,99152.44
2022-10-07T00:27:43.912Z,99145.94
2022-10-07T00:32:46.457Z,99146.84
2022-10-07T00:37:48.821Z,99129.78
2022-10-07T00:42:53.744Z,99122.84
2022-10-07T00:47:56.995Z,99122.94
2022-10-07T00:53:02.356Z,99107.72
2022-10-07T00:58:09.417Z,99113.72
2022-10-07T01:03:12.816Z,99100.00
2022-10-07T01:08:15.940Z,99097.66
2022-10-07T01:13:33.697Z,99090.91
2022-10-07T01:18:41.719Z,99094.88
2022-10-07T01:23:52.811Z,99080.88
2022-10-07T01:29:04.313Z,99084.81
2022-10-07T01:34:09.719Z,99073.97
2022-10-07T01:39:15.746Z,99072.75
2022-10-07T01:44:18.732Z,99071.66
2022-10-07T01:49:21.989Z,99059.06
2022-10-07T01:55:01.829Z,99053.41
2022-10-07T02:00:10.961Z,99048.47
2022-10-07T02:05:51.399Z,99046.75
2022-10-07T02:11:12.208Z,99038.53
2022-10-07T02:16:36.784Z,99032.72
2022-10-07T02:21:42.002Z,99030.03
2022-10-07T02:26:45.396Z,99017.44
2022-10-07T02:31:50.955Z,99019.78
2022-10-07T02:37:02.994Z,99012.72
2022-10-07T02:42:25.398Z,99012.91
2022-10-07T02:47:33.255Z,99013.00
2022-10-07T02:52:37.463Z,99000.00
2022-10-07T02:57:47.231Z,98998.06
2022-10-07T03:03:05.263Z,98992.63
2022-10-07T03:08:30.532Z,98987.59
2022-10-07T03:13:35.433Z,98983.97
2022-10-07T03:18:39.084Z,98985.25
2022-10-07T03:24:05.200Z,98980.88
2022-10-07T03:29:13.968Z,98978.47
2022-10-07T03:34:17.228Z,98969.72
2022-10-07T03:39:23.327Z,98970.19
2022-10-07T03:44:26.402Z,98955.78
2022-10-07T03:49:30.728Z,98966.53
2022-10-07T03:54:33.779Z,98961.53
2022-10-07T03:59:36.559Z,98954.34
2022-10-07T04:04:40.527Z,98950.22
2022-10-07T04:09:42.941Z,98937.22
2022-10-07T04:14:45.508Z,98944.53
2022-10-07T04:19:48.069Z,98931.34
2022-10-07T04:25:11.119Z,98936.56
2022-10-07T04:30:14.249Z,98933.25
2022-10-07T04:35:18.690Z,98924.00
2022-10-07T04:40:22.357Z,98929.22
2022-10-07T04:45:25.704Z,98915.84
2022-10-07T04:50:29.257Z,98903.59
2022-10-07T04:55:42.221Z,98906.47
2022-10-07T05:00:50.385Z,98901.41
2022-10-07T05:05:56.966Z,98904.44
2022-10-07T05:11:02.523Z,98905.16
2022-10-07T05:16:12.241Z,98903.28
2022-10-07T05:21:17.010Z,98906.69
2022-10-07T05:26:22.011Z,98903.00
2022-10-07T05:31:29.921Z,98897.94
2022-10-07T05:36:36.412Z,98896.56
2022-10-07T05:41:45.575Z,98896.97
2022-10-07T05:46:51.574Z,98896.84
2022-10-07T05:51:54.831Z,98892.63
2022-10-07T05:56:57.404Z,98886.56
2022-10-07T06:02:01.103Z,98886.56
2022-10-07T06:07:05.596Z,98888.63
2022-10-07T06:12:29.323Z,98883.25
2022-10-07T06:17:33.282Z,98878.66
2022-10-07T06:22:39.328Z,98878.09
2022-10-07T06:27:41.864Z,98880.78
2022-10-07T06:32:44.471Z,98877.34
2022-10-07T06:37:47.729Z,98882.50
2022-10-07T06:42:50.652Z,98884.91
2022-10-07T06:48:15.945Z,98873.50
2022-10-07T06:53:19.689Z,98871.56
2022-10-07T06:58:22.558Z,98879.59
2022-10-07T07:03:27.260Z,98877.00
2022-10-07T07:08:32.340Z,98887.31
2022-10-07T07:13:38.830Z,98877.41
2022-10-07T07:18:43.523Z,98889.25
2022-10-07T07:23:46.203Z,98872.28
2022-10-07T07:28:55.333Z,98877.47
2022-10-07T07:34:01.717Z,98874.66
2022-10-07T07:39:09.899Z,98873.44
2022-10-07T07:44:15.121Z,98870.47
2022-10-07T07:49:18.257Z,98861.78
2022-10-07T07:54:21.159Z,98862.41
2022-10-07T07:59:27.400Z,98865.53
2022-10-07T08:04:32.792Z,98860.94
2022-10-07T08:09:41.996Z,98855.50
2022-10-07T08:14:44.543Z,98855.84
2022-10-07T08:19:48.457Z,98857.16
2022-10-07T08:24:51.054Z,98845.00
2022-10-07T08:29:56.173Z,98841.06
2022-10-07T08:34:59.196Z,98843.19
2022-10-07T08:40:01.824Z,98846.13
2022-10-07T08:45:05.568Z,98839.09
2022-10-07T08:50:19.899Z,98828.75
2022-10-07T08:55:22.559Z,98827.13
2022-10-07T09:00:25.097Z,98819.22
2022-10-07T09:05:34.184Z,98819.75
2022-10-07T09:10:50.716Z,98817.38
2022-10-07T09:16:14.086Z,98823.41
2022-10-07T09:21:22.806Z,98817.25
2022-10-07T09:26:27.486Z,98801.13
2022-10-07T09:31:32.816Z,98800.31
2022-10-07T09:37:00.683Z,98791.13
2022-10-07T09:42:07.213Z,98788.50
2022-10-07T09:47:29.172Z,98788.97
2022-10-07T09:52:32.778Z,98785.16
2022-10-07T09:57:36.971Z,98778.56
2022-10-07T10:02:48.551Z,98775.00
2022-10-07T10:08:03.714Z,98773.31
2022-10-07T10:13:23.553Z,98766.88
2022-10-07T10:18:42.131Z,98762.56
2022-10-07T10:23:53.147Z,98758.59
2022-10-07T10:29:19.142Z,98749.25
2022-10-07T10:34:50.007Z,98748.47
2022-10-07T10:40:23.160Z,98733.59
2022-10-07T10:45:35.145Z,98726.44
2022-10-07T10:50:45.551Z,98716.69
2022-10-07T10:56:17.474Z,98718.34
2022-10-07T11:01:40.842Z,98708.28
2022-10-07T11:06:48.816Z,98694.66
2022-10-07T11:11:51.570Z,98694.13
2022-10-07T11:17:01.203Z,98694.09
2022-10-07T11:22:04.266Z,98680.63
2022-10-07T11:27:23.831Z,98670.28
2022-10-07T11:32:36.182Z,98668.25
2022-10-07T11:37:43.079Z,98652.63
2022-10-07T11:42:50.380Z,98652.91
2022-10-07T11:47:58.939Z,98643.88
2022-10-07T11:53:06.639Z,98633.69
2022-10-07T11:58:25.470Z,98632.06
2022-10-07T12:03:34.689Z,98619.53
2022-10-07T12:08:40.657Z,98604.97
2022-10-07T12:13:46.249Z,98595.66
2022-10-07T12:19:10.515Z,98597.38
2022-10-07T12:24:16.586Z,98588.50
2022-10-07T12:29:35.661Z,98582.31
2022-10-07T12:34:41.424Z,98580.78
2022-10-07T12:39:44.090Z,98582.50
2022-10-07T12:44:52.686Z,98572.19
2022-10-07T12:50:07.223Z,98580.38
2022-10-07T12:55:16.329Z,98568.69
2022-10-07T13:00:18.641Z,98556.00
2022-10-07T13:05:58.632Z,98548.34
2022-10-07T13:11:47.554Z,98550.41
2022-10-07T13:16:56.070Z,98542.63
2022-10-07T13:22:18.748Z,98538.03
2022-10-07T13:27:25.569Z,98515.72
2022-10-07T13:32:34.427Z,98521.13
2022-10-07T13:37:45.230Z,98510.22
2022-10-07T13:42:59.264Z,98510.25
2022-10-07T13:48:01.765Z,98501.41
2022-10-07T13:53:04.304Z,98499.81
2022-10-07T13:58:07.249Z,98494.34
2022-10-07T14:03:17.304Z,98487.41
2022-10-07T14:08:22.578Z,98481.38
2022-10-07T14:13:28.970Z,98479.50
2022-10-07T14:18:31.856Z,98481.75
2022-10-07T14:23:37.871Z,98481.06
2022-10-07T14:28:42.020Z,98459.66
2022-10-07T14:34:29.839Z,98463.03
2022-10-07T14:39:32.431Z,98451.31
2022-10-07T14:44:35.144Z,98452.72
2022-10-07T14:49:37.835Z,98442.53
2022-10-07T14:54:41.087Z,98438.63
2022-10-07T14:59:43.460Z,98427.59
2022-10-07T15:04:46.915Z,98426.63
2022-10-07T15:09:49.358Z,98420.34
2022-10-07T15:14:52.032Z,98422.44
2022-10-07T15:19:54.551Z,98411.91
2022-10-07T15:24:57.519Z,98410.44
2022-10-07T15:30:02.875Z,98411.22
2022-10-07T15:35:05.720Z,98404.78
2022-10-07T15:40:08.931Z,98404.44
2022-10-07T15:45:11.686Z,98399.22
2022-10-07T15:50:16.524Z,98393.75
2022-10-07T15:55:19.541Z,98396.50
2022-10-07T16:00:22.134Z,98391.31
2022-10-07T16:05:24.523Z,98391.16
2022-10-07T16:10:27.104Z,98381.91
2022-10-07T16:15:29.560Z,98377.50
2022-10-07T16:20:31.959Z,98373.38
2022-10-07T16:25:36.440Z,98379.13
2022-10-07T16:30:43.249Z,98377.00
2022-10-07T16:35:45.777Z,98369.69
2022-10-07T16:40:54.881Z,98381.06
2022-10-07T16:46:03.054Z,98371.91
2022-10-07T16:51:12.595Z,98376.22
2022-10-07T16:56:19.189Z,98376.22
2022-10-07T17:01:21.631Z,98373.38
2022-10-07T17:06:25.555Z,98367.50
2022-10-07T17:11:31.273Z,98370.69
2022-10-07T17:16:42.888Z,98372.94
2022-10-07T17:21:47.645Z,98383.16
2022-10-07T17:26:53.099Z,98374.38
2022-10-07T17:31:56.097Z,98374.81
2022-10-07T17:36:59.741Z,98368.00
2022-10-07T17:42:02.103Z,98369.97
2022-10-07T17:47:05.348Z,98365.22
2022-10-07T17:52:08.055Z,98370.72
2022-10-07T17:57:10.500Z,98372.16
2022-10-07T18:02:13.095Z,98374.63
2022-10-07T18:07:16.788Z,98364.19
2022-10-07T18:12:38.505Z,98367.88
2022-10-07T18:17:40.899Z,98367.84
2022-10-07T18:22:44.262Z,98367.31
2022-10-07T18:27:46.918Z,98361.09
2022-10-07T18:32:52.576Z,98363.88
2022-10-07T18:37:54.990Z,98359.00
2022-10-07T18:42:57.406Z,98351.06
2022-10-07T18:48:00.046Z,98345.56
2022-10-07T18:53:02.561Z,98342.50
2022-10-07T18:58:04.928Z,98345.13
2022-10-07T19:03:08.050Z,98342.97
2022-10-07T19:08:10.559Z,98348.00
2022-10-07T19:13:46.784Z,98341.56
2022-10-07T19:18:54.534Z,98339.13
2022-10-07T19:23:58.883Z,98345.81
2022-10-07T19:29:02.151Z,98344.94
2022-10-07T19:34:08.240Z,98347.06
2022-10-07T19:39:11.208Z,98346.97
2022-10-07T19:44:17.354Z,98345.72
2022-10-07T19:49:19.966Z,98347.28
2022-10-07T19:54:22.344Z,98346.78
2022-10-07T19:59:25.258Z,98346.59
2022-10-07T20:04:27.692Z,98340.56
2022-10-07T20:09:30.139Z,98341.72
2022-10-07T20:14:33.082Z,98340.19
2022-10-07T20:19:35.690Z,98332.53
2022-10-07T20:24:38.490Z,98329.44
2022-10-07T20:29:57.219Z,98335.06
2022-10-07T20:35:00.550Z,98338.88
2022-10-07T20:40:22.040Z,98329.75
2022-10-07T20:45:24.459Z,98335.97
2022-10-07T20:50:26.811Z,98322.69
2022-10-07T20:55:31.962Z,98322.44
2022-10-07T21:00:38.424Z,98324.53
2022-10-07T21:05:40.871Z,98323.44
2022-10-07T21:10:43.221Z,98315.69
2022-10-07T21:15:45.637Z,98310.44
2022-10-07T21:20:56.921Z,98307.41
2022-10-07T21:26:05.444Z,98304.34
2022-10-07T21:31:11.519Z,98303.06
2022-10-07T21:36:17.035Z,98305.53
2022-10-07T21:41:22.976Z,98300.03
2022-10-07T21:46:27.148Z,98300.94
2022-10-07T21:51:29.761Z,98293.28
2022-10-07T21:56:33.620Z,98288.13
2022-10-07T22:01:36.122Z,98297.25
2022-10-07T22:06:57.329Z,98295.97
2022-10-07T22:11:59.858Z,98293.78
2022-10-07T22:17:02.195Z,98302.31
2022-10-07T22:22:04.623Z,98293.78
2022-10-07T22:27:07.177Z,98293.78
2022-10-07T22:32:09.794Z,98279.97
2022-10-07T22:37:12.196Z,98275.69
2022-10-07T22:42:14.539Z,98282.81
2022-10-07T22:47:17.001Z,98279.53
2022-10-07T22:52:19.372Z,98271.69
2022-10-07T22:57:21.902Z,98268.38
2022-10-07T23:02:24.609Z,98270.59
2022-10-07T23:07:28.296Z,98262.84
2022-10-07T23:12:30.731Z,98266.38
2022-10-07T23:17:33.072Z,98264.28
2022-10-07T23:22:35.707Z,98273.44
2022-10-07T23:27:39.504Z,98269.78
2022-10-07T23:32:46.078Z,98263.38
2022-10-07T23:37:48.579Z,98262.34
2022-10-07T23:42:50.989Z,98258.53
2022-10-07T23:47:53.981Z,98256.41
2022-10-07T23:52:56.323Z,98250.31
2022-10-07T23:57:58.668Z,98257.31
